sensor_id;sensor_type;location;lat;lon;timestamp;pressure;altitude;pressure_sealevel;temperature;humidity
74329;BME280;62749;51.982;5.916;2023-04-30T00:00:00;102133.34;;;9.34;77.54
74329;BME280;62749;51.982;5.916;2023-04-30T00:02:34;102140.38;;;9.35;77.59
74329;BME280;62749;51.982;5.916;2023-04-30T00:05:04;102135.16;;;9.29;77.66
74329;BME280;62749;51.982;5.916;2023-04-30T00:07:33;102136.81;;;9.36;77.85
74329;BME280;62749;51.982;5.916;2023-04-30T00:10:08;102138.50;;;9.42;77.34
74329;BME280;62749;51.982;5.916;2023-04-30T00:12:38;102147.25;;;9.44;78.01
74329;BME280;62749;51.982;5.916;2023-04-30T00:15:10;102145.47;;;9.46;77.65
74329;BME280;62749;51.982;5.916;2023-04-30T00:17:40;102147.19;;;9.47;77.06
74329;BME280;62749;51.982;5.916;2023-04-30T00:20:10;102150.13;;;9.27;77.57
74329;BME280;62749;51.982;5.916;2023-04-30T00:22:40;102144.00;;;9.25;77.91
74329;BME280;62749;51.982;5.916;2023-04-30T00:25:10;102142.34;;;9.20;78.07
74329;BME280;62749;51.982;5.916;2023-04-30T00:27:39;102146.78;;;9.15;78.38
74329;BME280;62749;51.982;5.916;2023-04-30T00:30:11;102144.19;;;9.14;78.32
74329;BME280;62749;51.982;5.916;2023-04-30T00:32:41;102147.69;;;9.16;78.53
74329;BME280;62749;51.982;5.916;2023-04-30T00:35:11;102139.88;;;9.08;78.94
74329;BME280;62749;51.982;5.916;2023-04-30T00:37:41;102139.00;;;9.08;79.20
74329;BME280;62749;51.982;5.916;2023-04-30T00:40:11;102146.91;;;9.09;78.76
74329;BME280;62749;51.982;5.916;2023-04-30T00:42:41;102151.31;;;9.07;79.13
74329;BME280;62749;51.982;5.916;2023-04-30T00:45:13;102139.91;;;9.05;78.92
74329;BME280;62749;51.982;5.916;2023-04-30T00:47:43;102148.91;;;8.88;79.49
74329;BME280;62749;51.982;5.916;2023-04-30T00:50:14;102146.25;;;8.92;79.49
74329;BME280;62749;51.982;5.916;2023-04-30T00:52:44;102142.72;;;8.93;79.30
74329;BME280;62749;51.982;5.916;2023-04-30T00:55:13;102141.94;;;8.84;78.95
74329;BME280;62749;51.982;5.916;2023-04-30T00:57:43;102146.22;;;8.95;79.31
74329;BME280;62749;51.982;5.916;2023-04-30T01:00:16;102152.34;;;8.95;79.42
74329;BME280;62749;51.982;5.916;2023-04-30T01:02:46;102150.56;;;8.97;78.76
74329;BME280;62749;51.982;5.916;2023-04-30T01:05:16;102152.25;;;9.03;78.90
74329;BME280;62749;51.982;5.916;2023-04-30T01:07:46;102140.88;;;8.99;78.48
74329;BME280;62749;51.982;5.916;2023-04-30T01:10:16;102156.59;;;9.05;78.65
74329;BME280;62749;51.982;5.916;2023-04-30T01:12:52;102152.28;;;9.01;78.60
74329;BME280;62749;51.982;5.916;2023-04-30T01:15:34;102150.50;;;9.03;78.61
74329;BME280;62749;51.982;5.916;2023-04-30T01:18:11;102154.03;;;9.02;78.65
74329;BME280;62749;51.982;5.916;2023-04-30T01:20:48;102145.34;;;8.93;78.95
74329;BME280;62749;51.982;5.916;2023-04-30T01:23:32;102148.00;;;8.93;78.52
74329;BME280;62749;51.982;5.916;2023-04-30T01:26:13;102140.25;;;8.80;78.71
74329;BME280;62749;51.982;5.916;2023-04-30T01:28:49;102155.13;;;8.83;78.74
74329;BME280;62749;51.982;5.916;2023-04-30T01:31:23;102148.91;;;8.88;78.86
74329;BME280;62749;51.982;5.916;2023-04-30T01:33:52;102143.69;;;8.87;78.96
74329;BME280;62749;51.982;5.916;2023-04-30T01:36:34;102147.13;;;8.90;78.80
74329;BME280;62749;51.982;5.916;2023-04-30T01:39:21;102131.53;;;8.75;79.02
74329;BME280;62749;51.982;5.916;2023-04-30T01:42:01;102141.22;;;8.71;78.96
74329;BME280;62749;51.982;5.916;2023-04-30T01:44:57;102138.69;;;8.64;79.34
74329;BME280;62749;51.982;5.916;2023-04-30T01:47:38;102149.25;;;8.62;79.90
74329;BME280;62749;51.982;5.916;2023-04-30T01:50:18;102143.00;;;8.71;79.57
74329;BME280;62749;51.982;5.916;2023-04-30T01:52:52;102154.44;;;8.68;79.56
74329;BME280;62749;51.982;5.916;2023-04-30T01:55:27;102153.56;;;8.69;79.92
74329;BME280;62749;51.982;5.916;2023-04-30T01:57:59;102144.91;;;8.58;79.36
74329;BME280;62749;51.982;5.916;2023-04-30T02:00:32;102158.03;;;8.64;79.71
74329;BME280;62749;51.982;5.916;2023-04-30T02:03:09;102164.16;;;8.65;79.67
74329;BME280;62749;51.982;5.916;2023-04-30T02:05:38;102167.66;;;8.67;79.52
74329;BME280;62749;51.982;5.916;2023-04-30T02:08:08;102168.50;;;8.69;79.55
74329;BME280;62749;51.982;5.916;2023-04-30T02:10:37;102163.31;;;8.59;79.59
74329;BME280;62749;51.982;5.916;2023-04-30T02:13:06;102167.72;;;8.59;80.22
74329;BME280;62749;51.982;5.916;2023-04-30T02:15:38;102166.00;;;8.55;79.91
74329;BME280;62749;51.982;5.916;2023-04-30T02:18:08;102161.63;;;8.54;80.08
74329;BME280;62749;51.982;5.916;2023-04-30T02:20:37;102170.44;;;8.51;79.77
74329;BME280;62749;51.982;5.916;2023-04-30T02:23:07;102167.81;;;8.51;80.14
74329;BME280;62749;51.982;5.916;2023-04-30T02:25:37;102177.47;;;8.52;80.04
74329;BME280;62749;51.982;5.916;2023-04-30T02:28:06;102167.78;;;8.53;80.07
74329;BME280;62749;51.982;5.916;2023-04-30T02:30:38;102170.50;;;8.45;79.89
74329;BME280;62749;51.982;5.916;2023-04-30T02:33:08;102170.53;;;8.42;80.36
74329;BME280;62749;51.982;5.916;2023-04-30T02:35:39;102151.28;;;8.34;80.04
74329;BME280;62749;51.982;5.916;2023-04-30T02:38:09;102170.59;;;8.36;80.05
74329;BME280;62749;51.982;5.916;2023-04-30T02:40:39;102168.94;;;8.25;80.06
74329;BME280;62749;51.982;5.916;2023-04-30T02:43:09;102168.06;;;8.23;80.76
74329;BME280;62749;51.982;5.916;2023-04-30T02:45:41;102175.03;;;8.31;80.96
74329;BME280;62749;51.982;5.916;2023-04-30T02:48:10;102170.59;;;8.37;80.49
74329;BME280;62749;51.982;5.916;2023-04-30T02:50:40;102158.31;;;8.33;80.43
74329;BME280;62749;51.982;5.916;2023-04-30T02:53:09;102162.72;;;8.34;80.36
74329;BME280;62749;51.982;5.916;2023-04-30T02:55:39;102158.38;;;8.28;81.01
74329;BME280;62749;51.982;5.916;2023-04-30T02:58:08;102161.94;;;8.24;80.88
74329;BME280;62749;51.982;5.916;2023-04-30T03:00:41;102163.69;;;8.25;81.17
74329;BME280;62749;51.982;5.916;2023-04-30T03:03:11;102161.00;;;8.27;81.05
74329;BME280;62749;51.982;5.916;2023-04-30T03:05:41;102162.84;;;8.20;81.01
74329;BME280;62749;51.982;5.916;2023-04-30T03:08:10;102156.81;;;8.09;81.66
74329;BME280;62749;51.982;5.916;2023-04-30T03:10:40;102156.88;;;8.06;81.98
74329;BME280;62749;51.982;5.916;2023-04-30T03:13:09;102155.94;;;8.07;81.82
74329;BME280;62749;51.982;5.916;2023-04-30T03:15:41;102153.28;;;8.11;81.63
74329;BME280;62749;51.982;5.916;2023-04-30T03:18:11;102142.78;;;8.07;81.52
74329;BME280;62749;51.982;5.916;2023-04-30T03:20:40;102143.72;;;8.01;82.29
74329;BME280;62749;51.982;5.916;2023-04-30T03:23:10;102146.44;;;7.93;82.04
74329;BME280;62749;51.982;5.916;2023-04-30T03:25:39;102148.16;;;7.99;82.09
74329;BME280;62749;51.982;5.916;2023-04-30T03:28:08;102156.06;;;7.96;82.11
74329;BME280;62749;51.982;5.916;2023-04-30T03:30:40;102149.00;;;7.99;82.08
74329;BME280;62749;51.982;5.916;2023-04-30T03:33:10;102144.63;;;8.00;81.75
74329;BME280;62749;51.982;5.916;2023-04-30T03:35:39;102136.75;;;7.98;81.56
74329;BME280;62749;51.982;5.916;2023-04-30T03:38:09;102146.38;;;7.99;82.01
74329;BME280;62749;51.982;5.916;2023-04-30T03:40:38;102147.25;;;7.98;82.06
74329;BME280;62749;51.982;5.916;2023-04-30T03:43:08;102151.72;;;7.93;81.85
74329;BME280;62749;51.982;5.916;2023-04-30T03:45:37;102152.59;;;7.91;82.04
74329;BME280;62749;51.982;5.916;2023-04-30T03:48:09;102155.25;;;7.89;82.44
74329;BME280;62749;51.982;5.916;2023-04-30T03:50:39;102142.13;;;7.83;82.12
74329;BME280;62749;51.982;5.916;2023-04-30T03:53:08;102147.38;;;7.86;82.45
74329;BME280;62749;51.982;5.916;2023-04-30T03:55:38;102144.78;;;7.85;82.49
74329;BME280;62749;51.982;5.916;2023-04-30T03:58:07;102148.34;;;7.79;82.36
74329;BME280;62749;51.982;5.916;2023-04-30T04:00:39;102142.22;;;7.74;82.72
74329;BME280;62749;51.982;5.916;2023-04-30T04:03:11;102144.88;;;7.72;83.13
74329;BME280;62749;51.982;5.916;2023-04-30T04:05:40;102142.25;;;7.71;82.72
74329;BME280;62749;51.982;5.916;2023-04-30T04:08:10;102144.00;;;7.73;83.07
74329;BME280;62749;51.982;5.916;2023-04-30T04:10:40;102141.41;;;7.64;83.25
74329;BME280;62749;51.982;5.916;2023-04-30T04:13:09;102147.56;;;7.64;83.07
74329;BME280;62749;51.982;5.916;2023-04-30T04:15:39;102143.22;;;7.60;83.45
74329;BME280;62749;51.982;5.916;2023-04-30T04:18:11;102144.06;;;7.64;83.33
74329;BME280;62749;51.982;5.916;2023-04-30T04:20:40;102146.72;;;7.62;83.29
74329;BME280;62749;51.982;5.916;2023-04-30T04:23:10;102136.19;;;7.59;83.38
74329;BME280;62749;51.982;5.916;2023-04-30T04:25:39;102141.47;;;7.56;83.39
74329;BME280;62749;51.982;5.916;2023-04-30T04:28:09;102151.09;;;7.60;83.48
74329;BME280;62749;51.982;5.916;2023-04-30T04:30:39;102141.44;;;7.65;83.46
74329;BME280;62749;51.982;5.916;2023-04-30T04:33:11;102157.09;;;7.76;83.15
74329;BME280;62749;51.982;5.916;2023-04-30T04:35:40;102157.94;;;7.85;82.39
74329;BME280;62749;51.982;5.916;2023-04-30T04:38:10;102153.59;;;7.79;82.37
74329;BME280;62749;51.982;5.916;2023-04-30T04:40:39;102156.22;;;7.79;82.67
74329;BME280;62749;51.982;5.916;2023-04-30T04:43:08;102160.63;;;7.77;82.47
74329;BME280;62749;51.982;5.916;2023-04-30T04:45:38;102152.72;;;7.75;82.77
74329;BME280;62749;51.982;5.916;2023-04-30T04:48:10;102141.38;;;7.70;82.51
74329;BME280;62749;51.982;5.916;2023-04-30T04:50:40;102160.59;;;7.78;82.67
74329;BME280;62749;51.982;5.916;2023-04-30T04:53:10;102162.34;;;7.79;82.86
74329;BME280;62749;51.982;5.916;2023-04-30T04:55:39;102154.41;;;7.84;82.45
74329;BME280;62749;51.982;5.916;2023-04-30T04:58:08;102155.34;;;7.80;82.52
74329;BME280;62749;51.982;5.916;2023-04-30T05:00:38;102155.38;;;7.77;82.99
74329;BME280;62749;51.982;5.916;2023-04-30T05:03:07;102163.19;;;7.85;82.93
74329;BME280;62749;51.982;5.916;2023-04-30T05:05:40;102154.38;;;7.90;82.85
74329;BME280;62749;51.982;5.916;2023-04-30T05:08:09;102161.31;;;7.94;82.69
74329;BME280;62749;51.982;5.916;2023-04-30T05:10:39;102162.19;;;7.96;82.85
74329;BME280;62749;51.982;5.916;2023-04-30T05:13:08;102160.50;;;7.89;82.98
74329;BME280;62749;51.982;5.916;2023-04-30T05:15:38;102161.34;;;7.93;82.65
74329;BME280;62749;51.982;5.916;2023-04-30T05:18:07;102164.91;;;7.87;83.12
74329;BME280;62749;51.982;5.916;2023-04-30T05:20:37;102161.34;;;7.96;83.43
74329;BME280;62749;51.982;5.916;2023-04-30T05:23:09;102168.22;;;8.12;82.75
74329;BME280;62749;51.982;5.916;2023-04-30T05:25:38;102156.75;;;8.15;81.96
74329;BME280;62749;51.982;5.916;2023-04-30T05:28:08;102164.59;;;8.21;82.31
74329;BME280;62749;51.982;5.916;2023-04-30T05:30:37;102166.34;;;8.21;82.20
74329;BME280;62749;51.982;5.916;2023-04-30T05:33:06;102166.16;;;8.41;81.20
74329;BME280;62749;51.982;5.916;2023-04-30T05:35:36;102160.91;;;8.38;80.93
74329;BME280;62749;51.982;5.916;2023-04-30T05:38:09;102159.94;;;8.48;80.65
74329;BME280;62749;51.982;5.916;2023-04-30T05:40:39;102174.00;;;8.45;81.03
74329;BME280;62749;51.982;5.916;2023-04-30T05:43:09;102171.34;;;8.45;81.00
74329;BME280;62749;51.982;5.916;2023-04-30T05:45:38;102166.94;;;8.46;81.12
74329;BME280;62749;51.982;5.916;2023-04-30T05:48:08;102170.41;;;8.57;80.79
74329;BME280;62749;51.982;5.916;2023-04-30T05:50:37;102161.63;;;8.54;80.54
74329;BME280;62749;51.982;5.916;2023-04-30T05:53:09;102167.84;;;8.47;80.44
74329;BME280;62749;51.982;5.916;2023-04-30T05:55:39;102170.59;;;8.36;80.65
74329;BME280;62749;51.982;5.916;2023-04-30T05:58:08;102174.84;;;8.52;80.25
74329;BME280;62749;51.982;5.916;2023-04-30T06:00:38;102175.78;;;8.45;80.33
74329;BME280;62749;51.982;5.916;2023-04-30T06:03:07;102175.69;;;8.53;80.46
74329;BME280;62749;51.982;5.916;2023-04-30T06:05:37;102172.97;;;8.60;79.71
74329;BME280;62749;51.982;5.916;2023-04-30T06:08:09;102167.56;;;8.73;79.61
74329;BME280;62749;51.982;5.916;2023-04-30T06:10:39;102163.00;;;8.84;79.51
74329;BME280;62749;51.982;5.916;2023-04-30T06:13:08;102175.41;;;8.79;79.35
74329;BME280;62749;51.982;5.916;2023-04-30T06:15:40;102178.09;;;8.73;79.69
74329;BME280;62749;51.982;5.916;2023-04-30T06:18:11;102181.44;;;8.87;79.71
74329;BME280;62749;51.982;5.916;2023-04-30T06:20:41;102173.34;;;9.03;79.29
74329;BME280;62749;51.982;5.916;2023-04-30T06:23:13;102183.59;;;9.23;78.76
74329;BME280;62749;51.982;5.916;2023-04-30T06:25:43;102191.41;;;9.31;78.05
74329;BME280;62749;51.982;5.916;2023-04-30T06:28:12;102196.81;;;9.21;78.52
74329;BME280;62749;51.982;5.916;2023-04-30T06:30:42;102188.94;;;9.17;78.12
74329;BME280;62749;51.982;5.916;2023-04-30T06:33:12;102192.28;;;9.30;78.67
74329;BME280;62749;51.982;5.916;2023-04-30T06:35:41;102201.81;;;9.42;77.75
74329;BME280;62749;51.982;5.916;2023-04-30T06:38:13;102188.56;;;9.46;77.65
74329;BME280;62749;51.982;5.916;2023-04-30T06:40:43;102183.19;;;9.49;77.10
74329;BME280;62749;51.982;5.916;2023-04-30T06:43:12;102188.47;;;9.49;76.70
74329;BME280;62749;51.982;5.916;2023-04-30T06:45:42;102185.91;;;9.45;77.16
74329;BME280;62749;51.982;5.916;2023-04-30T06:48:11;102189.25;;;9.58;76.83
74329;BME280;62749;51.982;5.916;2023-04-30T06:50:41;102186.34;;;9.75;76.81
74329;BME280;62749;51.982;5.916;2023-04-30T06:53:14;102188.00;;;9.80;76.11
74329;BME280;62749;51.982;5.916;2023-04-30T06:55:44;102180.78;;;9.92;76.19
74329;BME280;62749;51.982;5.916;2023-04-30T06:58:14;102195.72;;;9.93;75.58
74329;BME280;62749;51.982;5.916;2023-04-30T07:00:44;102193.94;;;9.95;75.72
74329;BME280;62749;51.982;5.916;2023-04-30T07:03:13;102201.63;;;10.07;75.58
74329;BME280;62749;51.982;5.916;2023-04-30T07:05:58;102199.09;;;10.03;75.29
74329;BME280;62749;51.982;5.916;2023-04-30T07:08:30;102189.38;;;10.05;74.52
74329;BME280;62749;51.982;5.916;2023-04-30T07:11:00;102193.66;;;10.10;74.86
74329;BME280;62749;51.982;5.916;2023-04-30T07:13:29;102188.38;;;10.10;74.33
74329;BME280;62749;51.982;5.916;2023-04-30T07:15:59;102196.94;;;10.25;74.61
74329;BME280;62749;51.982;5.916;2023-04-30T07:18:28;102190.78;;;10.24;74.23
74329;BME280;62749;51.982;5.916;2023-04-30T07:20:59;102155.94;;;10.04;73.86
74329;BME280;62749;51.982;5.916;2023-04-30T07:23:32;102190.59;;;10.34;73.53
74329;BME280;62749;51.982;5.916;2023-04-30T07:26:01;102188.34;;;10.61;73.28
74329;BME280;62749;51.982;5.916;2023-04-30T07:28:31;102195.28;;;10.66;72.83
74329;BME280;62749;51.982;5.916;2023-04-30T07:31:00;102199.31;;;10.86;72.69
74329;BME280;62749;51.982;5.916;2023-04-30T07:33:30;102204.97;;;11.10;72.97
74329;BME280;62749;51.982;5.916;2023-04-30T07:35:59;102205.75;;;11.15;70.34
74329;BME280;62749;51.982;5.916;2023-04-30T07:38:31;102204.19;;;11.06;70.08
74329;BME280;62749;51.982;5.916;2023-04-30T07:41:02;102197.03;;;11.10;70.07
74329;BME280;62749;51.982;5.916;2023-04-30T07:43:32;102192.53;;;11.15;70.99
74329;BME280;62749;51.982;5.916;2023-04-30T07:46:01;102201.03;;;11.29;70.79
74329;BME280;62749;51.982;5.916;2023-04-30T07:48:31;102202.34;;;11.49;70.62
74329;BME280;62749;51.982;5.916;2023-04-30T07:51:00;102198.50;;;11.62;70.14
74329;BME280;62749;51.982;5.916;2023-04-30T07:53:32;102201.22;;;11.59;69.04
74329;BME280;62749;51.982;5.916;2023-04-30T07:56:02;102214.25;;;11.67;69.64
74329;BME280;62749;51.982;5.916;2023-04-30T07:58:33;102207.00;;;11.75;68.58
74329;BME280;62749;51.982;5.916;2023-04-30T08:01:03;102203.56;;;11.72;70.08
74329;BME280;62749;51.982;5.916;2023-04-30T08:03:32;102205.72;;;11.92;69.76
74329;BME280;62749;51.982;5.916;2023-04-30T08:06:02;102218.84;;;11.96;68.65
74329;BME280;62749;51.982;5.916;2023-04-30T08:08:35;102208.41;;;11.90;68.12
74329;BME280;62749;51.982;5.916;2023-04-30T08:11:05;102211.38;;;11.76;68.75
74329;BME280;62749;51.982;5.916;2023-04-30T08:13:34;102209.81;;;11.69;68.93
74329;BME280;62749;51.982;5.916;2023-04-30T08:16:04;102211.97;;;11.89;69.12
74329;BME280;62749;51.982;5.916;2023-04-30T08:18:34;102212.16;;;12.18;69.35
74329;BME280;62749;51.982;5.916;2023-04-30T08:21:04;102217.31;;;12.24;68.51
74329;BME280;62749;51.982;5.916;2023-04-30T08:23:36;102206.84;;;12.18;67.04
74329;BME280;62749;51.982;5.916;2023-04-30T08:26:06;102218.81;;;12.00;68.54
74329;BME280;62749;51.982;5.916;2023-04-30T08:28:35;102214.94;;;12.13;69.14
74329;BME280;62749;51.982;5.916;2023-04-30T08:31:05;102207.25;;;12.37;68.38
74329;BME280;62749;51.982;5.916;2023-04-30T08:33:35;102211.28;;;12.50;67.44
74329;BME280;62749;51.982;5.916;2023-04-30T08:36:04;102205.13;;;12.50;68.51
74329;BME280;62749;51.982;5.916;2023-04-30T08:38:37;102213.31;;;12.73;66.37
74329;BME280;62749;51.982;5.916;2023-04-30T08:41:10;102205.84;;;12.88;67.08
74329;BME280;62749;51.982;5.916;2023-04-30T08:43:41;102203.94;;;12.92;64.48
74329;BME280;62749;51.982;5.916;2023-04-30T08:46:11;102202.75;;;13.02;65.08
74329;BME280;62749;51.982;5.916;2023-04-30T08:48:43;102200.84;;;13.07;65.27
74329;BME280;62749;51.982;5.916;2023-04-30T08:51:14;102204.13;;;13.15;64.96
74329;BME280;62749;51.982;5.916;2023-04-30T08:53:47;102193.28;;;13.23;65.42
74329;BME280;62749;51.982;5.916;2023-04-30T08:56:17;102204.56;;;13.30;63.96
74329;BME280;62749;51.982;5.916;2023-04-30T08:58:47;102201.00;;;13.31;63.65
74329;BME280;62749;51.982;5.916;2023-04-30T09:01:16;102195.56;;;13.35;62.52
74329;BME280;62749;51.982;5.916;2023-04-30T09:03:46;102207.47;;;13.52;63.68
74329;BME280;62749;51.982;5.916;2023-04-30T09:06:16;102193.63;;;13.69;62.41
74329;BME280;62749;51.982;5.916;2023-04-30T09:08:48;102197.16;;;13.70;61.83
74329;BME280;62749;51.982;5.916;2023-04-30T09:11:21;102201.34;;;13.77;62.25
74329;BME280;62749;51.982;5.916;2023-04-30T09:13:55;102195.13;;;13.49;61.32
74329;BME280;62749;51.982;5.916;2023-04-30T09:16:26;102200.66;;;13.43;61.88
74329;BME280;62749;51.982;5.916;2023-04-30T09:18:58;102198.22;;;13.64;62.35
74329;BME280;62749;51.982;5.916;2023-04-30T09:21:32;102193.69;;;13.68;61.17
74329;BME280;62749;51.982;5.916;2023-04-30T09:24:05;102200.44;;;13.49;61.54
74329;BME280;62749;51.982;5.916;2023-04-30T09:26:37;102200.78;;;13.67;61.21
74329;BME280;62749;51.982;5.916;2023-04-30T09:29:06;102193.94;;;13.87;60.86
74329;BME280;62749;51.982;5.916;2023-04-30T09:31:37;102189.63;;;14.09;60.67
74329;BME280;62749;51.982;5.916;2023-04-30T09:34:07;102183.94;;;13.95;59.96
74329;BME280;62749;51.982;5.916;2023-04-30T09:36:36;102192.66;;;13.99;61.28
74329;BME280;62749;51.982;5.916;2023-04-30T09:39:10;102191.75;;;14.25;60.93
74329;BME280;62749;51.982;5.916;2023-04-30T09:41:43;102184.72;;;14.24;61.67
74329;BME280;62749;51.982;5.916;2023-04-30T09:44:27;102184.47;;;14.55;60.76
74329;BME280;62749;51.982;5.916;2023-04-30T09:46:57;102190.03;;;14.73;60.09
74329;BME280;62749;51.982;5.916;2023-04-30T09:49:26;102185.16;;;14.86;58.15
74329;BME280;62749;51.982;5.916;2023-04-30T09:51:57;102174.84;;;15.00;58.42
74329;BME280;62749;51.982;5.916;2023-04-30T09:54:30;102175.19;;;15.15;58.41
74329;BME280;62749;51.982;5.916;2023-04-30T09:57:01;102182.47;;;15.10;58.62
74329;BME280;62749;51.982;5.916;2023-04-30T09:59:33;102171.44;;;14.97;56.24
74329;BME280;62749;51.982;5.916;2023-04-30T10:02:05;102168.78;;;15.19;57.53
74329;BME280;62749;51.982;5.916;2023-04-30T10:04:36;102168.97;;;15.14;55.28
74329;BME280;62749;51.982;5.916;2023-04-30T10:07:10;102168.97;;;15.14;56.68
74329;BME280;62749;51.982;5.916;2023-04-30T10:09:48;102165.88;;;15.25;56.28
74329;BME280;62749;51.982;5.916;2023-04-30T10:12:23;102155.63;;;15.16;54.91
74329;BME280;62749;51.982;5.916;2023-04-30T10:14:58;102153.56;;;15.00;54.59
74329;BME280;62749;51.982;5.916;2023-04-30T10:17:36;102154.00;;;15.34;54.24
74329;BME280;62749;51.982;5.916;2023-04-30T10:20:09;102151.59;;;15.50;54.00
74329;BME280;62749;51.982;5.916;2023-04-30T10:22:39;102150.88;;;15.45;53.73
74329;BME280;62749;51.982;5.916;2023-04-30T10:25:12;102146.22;;;15.72;55.04
74329;BME280;62749;51.982;5.916;2023-04-30T10:27:42;102152.31;;;15.97;54.12
74329;BME280;62749;51.982;5.916;2023-04-30T10:30:12;102153.25;;;15.95;54.23
74329;BME280;62749;51.982;5.916;2023-04-30T10:32:50;102143.78;;;16.09;53.26
74329;BME280;62749;51.982;5.916;2023-04-30T10:35:25;102142.34;;;16.02;52.79
74329;BME280;62749;51.982;5.916;2023-04-30T10:38:06;102141.63;;;15.98;51.50
74329;BME280;62749;51.982;5.916;2023-04-30T10:40:44;102143.16;;;16.04;54.37
74329;BME280;62749;51.982;5.916;2023-04-30T10:43:16;102134.25;;;16.24;52.68
74329;BME280;62749;51.982;5.916;2023-04-30T10:45:47;102148.41;;;16.26;53.55
74329;BME280;62749;51.982;5.916;2023-04-30T10:48:21;102149.84;;;16.33;52.44
74329;BME280;62749;51.982;5.916;2023-04-30T10:50:55;102139.78;;;16.59;51.53
74329;BME280;62749;51.982;5.916;2023-04-30T10:53:29;102137.66;;;17.77;48.73
74329;BME280;62749;51.982;5.916;2023-04-30T10:56:03;102130.63;;;19.41;44.99
74329;BME280;62749;51.982;5.916;2023-04-30T10:58:35;102124.31;;;20.61;42.41
74329;BME280;62749;51.982;5.916;2023-04-30T11:01:08;102128.59;;;21.88;39.50
74329;BME280;62749;51.982;5.916;2023-04-30T11:03:40;102123.63;;;21.95;38.68
74329;BME280;62749;51.982;5.916;2023-04-30T11:06:12;102124.31;;;21.98;38.22
74329;BME280;62749;51.982;5.916;2023-04-30T11:08:45;102126.22;;;21.70;39.50
74329;BME280;62749;51.982;5.916;2023-04-30T11:11:19;102113.16;;;20.96;40.32
74329;BME280;62749;51.982;5.916;2023-04-30T11:13:58;102112.69;;;22.11;38.62
74329;BME280;62749;51.982;5.916;2023-04-30T11:16:28;102111.38;;;21.90;38.01
74329;BME280;62749;51.982;5.916;2023-04-30T11:19:05;102116.34;;;21.43;39.75
74329;BME280;62749;51.982;5.916;2023-04-30T11:21:39;102112.44;;;21.62;39.65
74329;BME280;62749;51.982;5.916;2023-04-30T11:24:08;102108.88;;;20.50;40.67
74329;BME280;62749;51.982;5.916;2023-04-30T11:27:04;102114.38;;;21.05;40.69
74329;BME280;62749;51.982;5.916;2023-04-30T11:29:35;102111.38;;;21.77;38.66
74329;BME280;62749;51.982;5.916;2023-04-30T11:32:06;102099.97;;;22.38;37.68
74329;BME280;62749;51.982;5.916;2023-04-30T11:34:36;102094.38;;;22.42;38.22
74329;BME280;62749;51.982;5.916;2023-04-30T11:37:08;102106.44;;;21.04;40.38
74329;BME280;62749;51.982;5.916;2023-04-30T11:39:41;102089.09;;;19.65;43.66
74329;BME280;62749;51.982;5.916;2023-04-30T11:42:17;102082.72;;;19.05;44.55
74329;BME280;62749;51.982;5.916;2023-04-30T11:44:47;102085.88;;;18.97;45.36
74329;BME280;62749;51.982;5.916;2023-04-30T11:47:16;102080.94;;;19.05;45.55
74329;BME280;62749;51.982;5.916;2023-04-30T11:49:49;102065.47;;;18.62;47.15
74329;BME280;62749;51.982;5.916;2023-04-30T11:52:20;102073.94;;;18.05;47.17
74329;BME280;62749;51.982;5.916;2023-04-30T11:54:49;102069.91;;;17.96;47.53
74329;BME280;62749;51.982;5.916;2023-04-30T11:57:21;102062.91;;;17.93;48.61
74329;BME280;62749;51.982;5.916;2023-04-30T11:59:51;102063.47;;;17.83;48.25
74329;BME280;62749;51.982;5.916;2023-04-30T12:02:21;102061.19;;;17.92;49.73
74329;BME280;62749;51.982;5.916;2023-04-30T12:04:51;102059.06;;;18.33;46.89
74329;BME280;62749;51.982;5.916;2023-04-30T12:07:21;102046.22;;;18.39;48.40
74329;BME280;62749;51.982;5.916;2023-04-30T12:09:52;102054.31;;;18.54;49.14
74329;BME280;62749;51.982;5.916;2023-04-30T12:12:30;102046.91;;;18.43;46.92
74329;BME280;62749;51.982;5.916;2023-04-30T12:15:09;102045.09;;;18.60;46.94
74329;BME280;62749;51.982;5.916;2023-04-30T12:17:39;102040.69;;;18.75;48.26
74329;BME280;62749;51.982;5.916;2023-04-30T12:20:10;102042.06;;;18.66;46.72
74329;BME280;62749;51.982;5.916;2023-04-30T12:22:41;102040.59;;;18.60;46.74
74329;BME280;62749;51.982;5.916;2023-04-30T12:25:13;102027.72;;;18.83;47.57
74329;BME280;62749;51.982;5.916;2023-04-30T12:27:49;102039.81;;;19.06;46.04
74329;BME280;62749;51.982;5.916;2023-04-30T12:30:19;102034.06;;;19.28;45.66
74329;BME280;62749;51.982;5.916;2023-04-30T12:32:50;102030.66;;;19.10;45.72
74329;BME280;62749;51.982;5.916;2023-04-30T12:35:22;102031.84;;;19.05;45.15
74329;BME280;62749;51.982;5.916;2023-04-30T12:38:00;102038.31;;;19.16;47.18
74329;BME280;62749;51.982;5.916;2023-04-30T12:40:30;102041.38;;;18.94;44.99
74329;BME280;62749;51.982;5.916;2023-04-30T12:43:04;102031.19;;;18.85;46.39
74329;BME280;62749;51.982;5.916;2023-04-30T12:45:44;102024.97;;;18.52;44.67
74329;BME280;62749;51.982;5.916;2023-04-30T12:48:17;102020.69;;;18.50;45.17
74329;BME280;62749;51.982;5.916;2023-04-30T12:50:51;102031.78;;;18.90;47.25
74329;BME280;62749;51.982;5.916;2023-04-30T12:53:22;102024.97;;;19.31;44.66
74329;BME280;62749;51.982;5.916;2023-04-30T12:56:07;102020.44;;;19.47;44.11
74329;BME280;62749;51.982;5.916;2023-04-30T12:58:40;102019.25;;;19.07;43.05
74329;BME280;62749;51.982;5.916;2023-04-30T13:01:11;102013.69;;;19.40;43.70
74329;BME280;62749;51.982;5.916;2023-04-30T13:03:41;102016.78;;;19.63;43.15
74329;BME280;62749;51.982;5.916;2023-04-30T13:06:10;102007.72;;;19.66;43.24
74329;BME280;62749;51.982;5.916;2023-04-30T13:08:39;102007.06;;;19.62;44.47
74329;BME280;62749;51.982;5.916;2023-04-30T13:11:09;102011.22;;;19.52;42.80
74329;BME280;62749;51.982;5.916;2023-04-30T13:13:41;101999.00;;;19.47;41.79
74329;BME280;62749;51.982;5.916;2023-04-30T13:16:10;101999.22;;;19.73;42.02